createdAt,value
2019-03-19T00:01:25.897Z,3.58
2019-03-19T00:03:53.327Z,3.59
2019-03-19T00:06:20.831Z,3.59
2019-03-19T00:08:48.332Z,3.52
2019-03-19T00:11:15.727Z,3.53
2019-03-19T00:13:43.172Z,3.46
2019-03-19T00:16:10.542Z,3.48
2019-03-19T00:18:38.959Z,3.46
2019-03-19T00:21:06.326Z,3.42
2019-03-19T00:23:33.796Z,3.44
2019-03-19T00:26:01.666Z,3.44
2019-03-19T00:28:31.005Z,3.42
2019-03-19T00:30:58.386Z,3.40
2019-03-19T00:33:27.199Z,3.41
2019-03-19T00:35:54.568Z,3.41
2019-03-19T00:38:22.249Z,3.38
2019-03-19T00:40:49.607Z,3.39
2019-03-19T00:43:17.022Z,3.37
2019-03-19T00:45:44.477Z,3.38
2019-03-19T00:48:14.996Z,3.36
2019-03-19T00:50:43.541Z,3.35
2019-03-19T00:53:13.497Z,3.37
2019-03-19T00:55:41.240Z,3.28
2019-03-19T00:58:08.711Z,3.27
2019-03-19T01:00:36.141Z,3.31
2019-03-19T01:03:03.646Z,3.29
2019-03-19T01:05:31.111Z,3.25
2019-03-19T01:08:01.686Z,3.29
2019-03-19T01:10:29.119Z,3.27
2019-03-19T01:12:56.491Z,3.25
2019-03-19T01:15:24.191Z,3.26
2019-03-19T01:17:51.571Z,3.17
2019-03-19T01:20:19.071Z,3.18
2019-03-19T01:22:46.416Z,3.16
2019-03-19T01:25:13.936Z,3.13
2019-03-19T01:27:41.326Z,3.07
2019-03-19T01:30:09.716Z,2.99
2019-03-19T01:32:37.121Z,3.11
2019-03-19T01:35:04.914Z,3.06
2019-03-19T01:37:32.392Z,3.07
2019-03-19T01:39:59.841Z,3.01
2019-03-19T01:42:27.235Z,3.08
2019-03-19T01:44:56.758Z,3.05
2019-03-19T01:47:24.667Z,3.07
2019-03-19T01:49:52.147Z,3.09
2019-03-19T01:52:19.550Z,3.07
2019-03-19T01:54:47.023Z,3.02
2019-03-19T01:57:16.413Z,3.04
2019-03-19T01:59:43.896Z,3.04
2019-03-19T02:02:11.357Z,3.04
2019-03-19T02:04:38.857Z,3.06
2019-03-19T02:07:06.258Z,3.08
2019-03-19T02:09:33.767Z,3.15
2019-03-19T02:12:01.157Z,3.12
2019-03-19T02:14:28.604Z,3.13
2019-03-19T02:16:55.998Z,3.05
2019-03-19T02:19:23.493Z,3.06
2019-03-19T02:21:50.933Z,3.09
2019-03-19T02:24:18.368Z,3.11
2019-03-19T02:26:45.758Z,3.15
2019-03-19T02:29:13.458Z,3.15
2019-03-19T02:31:40.854Z,3.12
2019-03-19T02:34:08.254Z,3.04
2019-03-19T02:36:35.687Z,2.99
2019-03-19T02:39:03.702Z,3.01
2019-03-19T02:41:31.130Z,2.93
2019-03-19T02:43:59.633Z,2.91
2019-03-19T02:46:29.972Z,2.90
2019-03-19T02:48:57.410Z,2.86
2019-03-19T02:51:24.871Z,2.85
2019-03-19T02:53:52.270Z,2.83
2019-03-19T02:56:31.989Z,2.84
2019-03-19T02:58:49.146Z,2.83
2019-03-19T03:01:16.587Z,2.77
2019-03-19T03:03:44.005Z,2.82
2019-03-19T03:06:11.453Z,2.78
2019-03-19T03:08:38.901Z,2.79
2019-03-19T03:11:06.348Z,2.74
2019-03-19T03:13:33.785Z,2.73
2019-03-19T03:16:01.228Z,2.67
2019-03-19T03:18:28.874Z,2.71
2019-03-19T03:20:56.459Z,2.73
2019-03-19T03:23:23.867Z,2.74
2019-03-19T03:25:51.779Z,2.66
2019-03-19T03:28:22.133Z,2.70
2019-03-19T03:30:49.627Z,2.72
2019-03-19T03:33:17.095Z,2.73
2019-03-19T03:35:47.081Z,2.74
2019-03-19T03:38:14.533Z,2.69
2019-03-19T03:40:41.967Z,2.70
2019-03-19T03:43:09.374Z,2.78
2019-03-19T03:45:36.820Z,2.79
2019-03-19T03:48:04.406Z,2.74
2019-03-19T03:50:31.901Z,2.75
2019-03-19T03:52:59.298Z,2.71
2019-03-19T03:55:26.778Z,2.73
2019-03-19T03:57:54.194Z,2.73
2019-03-19T04:00:21.629Z,2.72
2019-03-19T04:02:49.063Z,2.70
2019-03-19T04:05:16.674Z,2.74
2019-03-19T04:07:44.088Z,2.73
2019-03-19T04:10:11.591Z,2.66
2019-03-19T04:12:39.029Z,2.62
2019-03-19T04:15:07.638Z,2.64
2019-03-19T04:17:35.151Z,2.65
2019-03-19T04:20:02.646Z,2.59
2019-03-19T04:22:30.169Z,2.57
2019-03-19T04:24:57.695Z,2.59
2019-03-19T04:27:25.154Z,2.60
2019-03-19T04:29:53.032Z,2.57
2019-03-19T04:32:20.473Z,2.55
2019-03-19T04:34:47.933Z,2.54
2019-03-19T04:37:15.358Z,2.54
2019-03-19T04:39:42.754Z,2.49
2019-03-19T04:42:10.168Z,2.50
2019-03-19T04:44:37.608Z,2.43
2019-03-19T04:47:05.196Z,2.46
2019-03-19T04:49:32.707Z,2.44
2019-03-19T04:52:00.173Z,2.48
2019-03-19T04:54:28.683Z,2.42
2019-03-19T04:56:56.254Z,2.47
2019-03-19T04:59:23.688Z,2.40
2019-03-19T05:01:51.261Z,2.40
2019-03-19T05:04:18.792Z,2.36
2019-03-19T05:06:46.248Z,2.38
2019-03-19T05:09:13.648Z,2.39
2019-03-19T05:11:41.187Z,2.42
2019-03-19T05:14:08.598Z,2.33
2019-03-19T05:16:38.228Z,2.40
2019-03-19T05:19:05.887Z,2.39
2019-03-19T05:21:33.832Z,2.35
2019-03-19T05:24:01.537Z,2.44
2019-03-19T05:26:29.268Z,2.56
2019-03-19T05:28:56.724Z,2.43
2019-03-19T05:31:24.281Z,2.48
2019-03-19T05:33:52.315Z,2.53
2019-03-19T05:36:19.753Z,2.53
2019-03-19T05:38:47.185Z,2.60
2019-03-19T05:41:16.540Z,2.55
2019-03-19T05:43:43.977Z,2.71
2019-03-19T05:46:11.412Z,2.61
2019-03-19T05:48:38.841Z,2.56
2019-03-19T05:51:09.332Z,2.69
2019-03-19T05:53:36.773Z,2.89
2019-03-19T05:56:04.285Z,3.01
2019-03-19T05:58:32.059Z,3.37
2019-03-19T06:00:59.468Z,3.56
2019-03-19T06:03:26.967Z,3.87
2019-03-19T06:05:54.472Z,4.33
2019-03-19T06:08:22.017Z,4.64
2019-03-19T06:10:49.664Z,5.16
2019-03-19T06:13:18.727Z,5.43
2019-03-19T06:16:37.891Z,5.56
2019-03-19T06:19:40.673Z,6.16
2019-03-19T06:26:20.318Z,6.92
2019-03-19T06:29:31.112Z,7.29
2019-03-19T06:32:43.781Z,7.45
2019-03-19T06:35:24.468Z,7.70
2019-03-19T06:38:02.002Z,8.27
2019-03-19T06:40:37.494Z,8.10
2019-03-19T06:43:15.926Z,8.29
2019-03-19T06:46:27.522Z,8.65
2019-03-19T06:49:10.195Z,9.10
2019-03-19T06:51:47.542Z,9.49
2019-03-19T06:54:33.554Z,9.28
2019-03-19T06:57:06.432Z,9.86
2019-03-19T06:59:45.391Z,8.81
2019-03-19T07:02:18.813Z,8.19
2019-03-19T07:04:46.197Z,7.48
2019-03-19T07:07:13.657Z,6.92
2019-03-19T07:09:41.088Z,7.07
2019-03-19T07:12:08.513Z,8.05
2019-03-19T07:14:36.198Z,8.40
2019-03-19T07:17:03.712Z,9.62
2019-03-19T07:19:31.133Z,9.75
2019-03-19T07:21:58.757Z,10.25
2019-03-19T07:24:28.318Z,9.70
2019-03-19T07:26:55.840Z,9.01
2019-03-19T07:29:23.278Z,8.66
2019-03-19T07:31:50.672Z,7.87
2019-03-19T07:34:18.138Z,7.48
2019-03-19T07:36:45.537Z,7.13
2019-03-19T07:39:13.027Z,7.30
2019-03-19T07:41:40.433Z,8.59
2019-03-19T07:44:07.920Z,8.84
2019-03-19T07:46:35.367Z,9.14
2019-03-19T07:49:05.593Z,9.19
2019-03-19T07:51:33.008Z,9.54
2019-03-19T07:54:01.722Z,9.59
2019-03-19T07:56:29.173Z,9.37
2019-03-19T07:58:56.637Z,9.39
2019-03-19T08:01:24.767Z,10.10
2019-03-19T08:03:52.443Z,10.75
2019-03-19T08:06:19.827Z,11.16
2019-03-19T08:08:47.307Z,11.34
2019-03-19T08:11:16.721Z,12.17
2019-03-19T08:13:44.362Z,13.01
2019-03-19T08:16:11.832Z,13.10
2019-03-19T08:18:39.312Z,12.74
2019-03-19T08:21:06.733Z,13.89
2019-03-19T08:23:35.112Z,14.15
2019-03-19T08:26:02.865Z,14.58
2019-03-19T08:28:30.612Z,13.67
2019-03-19T08:30:58.282Z,13.69
2019-03-19T08:33:26.006Z,13.92
2019-03-19T08:35:53.652Z,14.16
2019-03-19T08:38:21.135Z,14.19
2019-03-19T08:40:51.103Z,13.87
2019-03-19T08:43:20.396Z,14.10
2019-03-19T08:45:47.972Z,14.10
2019-03-19T08:48:15.455Z,13.59
2019-03-19T08:50:42.879Z,14.10
2019-03-19T08:53:11.420Z,14.05
2019-03-19T08:55:39.312Z,14.60
2019-03-19T08:58:09.559Z,13.94
2019-03-19T09:00:37.353Z,13.52
2019-03-19T09:03:04.788Z,12.62
2019-03-19T09:05:32.263Z,11.96
2019-03-19T09:08:00.042Z,11.03
2019-03-19T09:10:27.592Z,10.79
2019-03-19T09:12:54.992Z,10.48
2019-03-19T09:15:22.538Z,10.68
2019-03-19T09:17:49.938Z,10.25
2019-03-19T09:20:18.687Z,9.83
2019-03-19T09:22:46.478Z,10.40
2019-03-19T09:25:14.116Z,10.09
2019-03-19T09:27:41.754Z,9.81
2019-03-19T09:30:12.084Z,9.68
2019-03-19T09:32:41.314Z,10.08
2019-03-19T09:35:09.074Z,9.56
2019-03-19T09:37:44.746Z,9.66
2019-03-19T09:40:17.053Z,9.81
2019-03-19T09:42:49.104Z,9.48
2019-03-19T09:45:17.534Z,9.54
2019-03-19T09:47:45.238Z,9.78
2019-03-19T09:50:13.779Z,9.18
2019-03-19T09:52:43.996Z,9.15
2019-03-19T09:55:12.305Z,9.40
2019-03-19T09:57:39.917Z,9.43
2019-03-19T10:00:10.131Z,9.28
2019-03-19T10:02:37.793Z,9.22
2019-03-19T10:05:05.462Z,9.33
2019-03-19T10:07:33.056Z,9.43
2019-03-19T10:10:00.693Z,9.36
2019-03-19T10:12:28.363Z,9.33
2019-03-19T10:14:56.094Z,9.20
2019-03-19T10:17:23.702Z,9.47
2019-03-19T10:19:51.322Z,9.56
2019-03-19T10:22:18.881Z,9.65
2019-03-19T10:24:46.533Z,9.43
2019-03-19T10:27:15.330Z,9.95
2019-03-19T10:29:43.339Z,10.03
2019-03-19T10:32:10.979Z,9.94
2019-03-19T10:34:38.631Z,9.87
2019-03-19T10:37:06.288Z,10.28
2019-03-19T10:39:33.990Z,10.66
2019-03-19T10:42:01.547Z,10.43
2019-03-19T10:44:29.322Z,10.05
2019-03-19T10:46:56.888Z,9.86
2019-03-19T10:49:24.516Z,9.88
2019-03-19T10:51:52.109Z,9.90
2019-03-19T10:54:19.710Z,9.53
2019-03-19T10:56:47.581Z,9.60
2019-03-19T10:59:17.087Z,9.92
2019-03-19T11:01:45.039Z,9.87
2019-03-19T11:04:14.893Z,9.86
2019-03-19T11:06:43.151Z,10.20
2019-03-19T11:09:10.792Z,10.15
2019-03-19T11:11:38.270Z,10.18
2019-03-19T11:14:05.901Z,10.26
2019-03-19T11:16:33.364Z,10.48
2019-03-19T11:19:00.920Z,11.55
2019-03-19T11:21:28.554Z,11.76
2019-03-19T11:23:56.052Z,11.93
2019-03-19T11:26:23.680Z,11.96
2019-03-19T11:28:51.418Z,11.62
2019-03-19T11:31:19.133Z,12.24
2019-03-19T11:33:47.839Z,12.36
2019-03-19T11:36:16.893Z,12.14
2019-03-19T11:38:48.573Z,12.07
2019-03-19T11:41:16.188Z,11.21
2019-03-19T11:43:43.933Z,10.75
2019-03-19T11:46:11.632Z,10.84
2019-03-19T11:48:39.520Z,10.72
2019-03-19T11:51:10.571Z,10.63
2019-03-19T11:53:38.291Z,10.48
2019-03-19T11:56:06.112Z,10.14
2019-03-19T11:58:33.953Z,10.16
2019-03-19T12:01:01.685Z,10.12
2019-03-19T12:03:29.279Z,10.17
2019-03-19T12:05:56.921Z,9.99
2019-03-19T12:08:24.472Z,10.14
2019-03-19T12:10:52.101Z,10.15
2019-03-19T12:13:19.741Z,10.42
2019-03-19T12:15:47.708Z,10.81
2019-03-19T12:18:15.232Z,10.62
2019-03-19T12:20:42.847Z,10.41
2019-03-19T12:23:10.456Z,10.60
2019-03-19T12:25:38.083Z,10.57
2019-03-19T12:28:06.252Z,10.40
2019-03-19T12:30:33.936Z,10.19
2019-03-19T12:33:01.473Z,10.03
2019-03-19T12:35:30.713Z,9.93
2019-03-19T12:37:58.512Z,9.94
2019-03-19T12:40:36.272Z,9.83
2019-03-19T12:42:55.632Z,9.87
2019-03-19T12:45:24.147Z,9.93
2019-03-19T12:47:51.854Z,9.94
2019-03-19T12:50:19.520Z,10.02
2019-03-19T12:52:47.233Z,10.24
2019-03-19T12:55:14.953Z,10.72
2019-03-19T12:57:42.480Z,11.04
2019-03-19T13:00:15.577Z,11.27
2019-03-19T13:02:43.133Z,11.36
2019-03-19T13:05:10.815Z,11.11
2019-03-19T13:07:38.392Z,11.27
2019-03-19T13:10:07.295Z,11.24
2019-03-19T13:12:34.852Z,11.22
2019-03-19T13:15:02.432Z,11.14
2019-03-19T13:17:30.012Z,10.96
2019-03-19T13:19:57.552Z,10.85
2019-03-19T13:22:25.209Z,10.80
2019-03-19T13:24:53.253Z,10.59
2019-03-19T13:27:20.892Z,10.58
2019-03-19T13:29:52.073Z,10.41
2019-03-19T13:32:19.652Z,10.07
2019-03-19T13:34:47.394Z,10.07
2019-03-19T13:37:15.033Z,10.03
2019-03-19T13:39:42.673Z,10.15
2019-03-19T13:42:10.392Z,10.09
2019-03-19T13:44:38.012Z,10.22
2019-03-19T13:47:05.933Z,10.63
2019-03-19T13:49:33.752Z,10.60
2019-03-19T13:52:01.773Z,10.27
2019-03-19T13:54:29.632Z,10.23
2019-03-19T13:56:57.532Z,10.23
2019-03-19T13:59:25.253Z,9.94
2019-03-19T14:01:53.411Z,10.07
2019-03-19T14:04:22.302Z,9.98
2019-03-19T14:06:50.412Z,10.00
2019-03-19T14:09:18.112Z,9.95
2019-03-19T14:11:45.692Z,10.17
2019-03-19T14:14:13.251Z,10.30
2019-03-19T14:16:40.994Z,10.32
2019-03-19T14:19:08.552Z,10.29
2019-03-19T14:21:36.192Z,10.34
2019-03-19T14:24:03.792Z,10.06
2019-03-19T14:26:31.455Z,10.04
2019-03-19T14:28:59.731Z,9.91
2019-03-19T14:31:30.273Z,9.93
2019-03-19T14:33:57.871Z,9.81
2019-03-19T14:36:26.595Z,9.75
2019-03-19T14:38:55.474Z,9.78
2019-03-19T14:41:23.192Z,9.83
2019-03-19T14:43:51.534Z,9.84
2019-03-19T14:46:19.236Z,9.94
2019-03-19T14:48:47.011Z,9.99
2019-03-19T14:51:14.553Z,9.82
2019-03-19T14:53:42.172Z,9.84
2019-03-19T14:56:09.827Z,9.71
2019-03-19T14:58:37.412Z,9.75
2019-03-19T15:01:05.235Z,9.58
2019-03-19T15:03:32.812Z,9.56
2019-03-19T15:06:00.495Z,9.40
2019-03-19T15:08:28.236Z,9.49
2019-03-19T15:10:55.774Z,9.48
2019-03-19T15:13:23.373Z,9.48
2019-03-19T15:15:51.232Z,9.58
2019-03-19T15:18:18.932Z,9.50
2019-03-19T15:20:46.653Z,9.47
2019-03-19T15:23:14.592Z,9.24
2019-03-19T15:25:42.533Z,9.27
2019-03-19T15:28:10.594Z,9.28
2019-03-19T15:30:38.312Z,9.16
2019-03-19T15:33:06.013Z,9.26
2019-03-19T15:35:33.614Z,9.38
2019-03-19T15:38:01.332Z,9.24
2019-03-19T15:40:29.134Z,9.41
2019-03-19T15:42:56.912Z,9.49
2019-03-19T15:45:24.656Z,9.40
2019-03-19T15:47:52.615Z,9.43
2019-03-19T15:50:20.436Z,9.43
2019-03-19T15:52:48.474Z,9.40
2019-03-19T15:55:16.472Z,9.26
2019-03-19T15:57:44.324Z,9.32
2019-03-19T16:00:14.545Z,9.38
2019-03-19T16:02:42.307Z,9.34
2019-03-19T16:05:10.310Z,9.14
2019-03-19T16:07:38.137Z,9.24
2019-03-19T16:10:06.149Z,9.31
2019-03-19T16:12:33.870Z,9.37
2019-03-19T16:15:02.108Z,9.30
2019-03-19T16:17:29.853Z,9.32
2019-03-19T16:19:57.438Z,9.44
2019-03-19T16:22:25.364Z,9.45
2019-03-19T16:24:53.047Z,9.51
2019-03-19T16:27:20.772Z,9.39
2019-03-19T16:29:48.486Z,9.44
2019-03-19T16:32:16.347Z,9.51
2019-03-19T16:34:44.018Z,9.46
2019-03-19T16:37:11.783Z,9.46
2019-03-19T16:39:39.662Z,9.50
2019-03-19T16:42:07.718Z,9.52
2019-03-19T16:44:35.587Z,9.58
2019-03-19T16:47:03.729Z,9.52
2019-03-19T16:49:31.473Z,9.64
2019-03-19T16:51:59.272Z,9.48
2019-03-19T16:54:27.263Z,9.54
2019-03-19T16:56:55.168Z,9.57
2019-03-19T16:59:22.978Z,9.35
2019-03-19T17:02:01.090Z,9.34
2019-03-19T17:04:20.613Z,9.38
2019-03-19T17:06:48.555Z,9.34
2019-03-19T17:09:16.507Z,9.24
2019-03-19T17:11:44.333Z,9.13
2019-03-19T17:14:12.213Z,8.99
2019-03-19T17:16:39.953Z,8.91
2019-03-19T17:19:08.327Z,8.86
2019-03-19T17:21:40.910Z,8.80
2019-03-19T17:24:08.648Z,8.71
2019-03-19T17:26:36.533Z,8.59
2019-03-19T17:29:04.322Z,8.51
2019-03-19T17:31:32.257Z,8.44
2019-03-19T17:34:00.232Z,8.33
2019-03-19T17:36:30.783Z,8.15
2019-03-19T17:38:58.833Z,8.07
2019-03-19T17:41:26.762Z,8.01
2019-03-19T17:43:54.494Z,7.93
2019-03-19T17:46:23.502Z,7.83
2019-03-19T17:54:57.737Z,7.53
2019-03-19T17:57:41.032Z,7.36
2019-03-19T18:00:10.748Z,7.38
2019-03-19T18:02:39.568Z,7.22
2019-03-19T18:05:07.802Z,7.06
2019-03-19T18:07:38.910Z,7.04
2019-03-19T18:10:07.704Z,6.95
2019-03-19T18:12:36.589Z,6.84
2019-03-19T18:15:07.028Z,6.72
2019-03-19T18:17:34.953Z,6.66
2019-03-19T18:20:03.331Z,6.62
2019-03-19T18:22:31.032Z,6.55
2019-03-19T18:24:59.108Z,6.54
2019-03-19T18:27:27.148Z,6.41
2019-03-19T18:29:55.601Z,6.22
2019-03-19T18:32:34.299Z,6.15
2019-03-19T18:34:53.808Z,6.30
2019-03-19T18:37:21.678Z,6.26
2019-03-19T18:39:49.866Z,6.26
2019-03-19T18:42:17.757Z,6.03
2019-03-19T18:44:45.935Z,6.07
2019-03-19T18:47:13.857Z,6.16
2019-03-19T18:49:41.797Z,6.12
2019-03-19T18:52:09.683Z,6.03
2019-03-19T18:54:37.807Z,5.96
2019-03-19T18:57:05.692Z,6.00
2019-03-19T18:59:33.575Z,5.87
2019-03-19T19:02:01.562Z,5.83
2019-03-19T19:04:29.439Z,5.82
2019-03-19T19:06:57.307Z,5.78
2019-03-19T19:09:25.255Z,5.75
2019-03-19T19:11:53.462Z,5.77
2019-03-19T19:14:21.462Z,5.64
2019-03-19T19:16:49.432Z,5.63
2019-03-19T19:19:20.603Z,5.61
2019-03-19T19:21:48.803Z,5.35
2019-03-19T19:24:17.142Z,5.10
2019-03-19T19:26:45.133Z,5.02
2019-03-19T19:29:15.212Z,4.89
2019-03-19T19:31:43.553Z,4.79
2019-03-19T19:34:11.567Z,4.68
2019-03-19T19:36:41.958Z,4.63
2019-03-19T19:39:09.817Z,4.58
2019-03-19T19:41:38.059Z,4.55
2019-03-19T19:44:06.212Z,4.48
2019-03-19T19:46:34.272Z,4.32
2019-03-19T19:49:13.572Z,4.29
2019-03-19T19:55:20.053Z,4.33
2019-03-19T19:57:50.971Z,4.20
2019-03-19T20:00:19.018Z,4.13
2019-03-19T20:02:47.111Z,4.07
2019-03-19T20:05:16.468Z,4.11
2019-03-19T20:11:38.694Z,4.17
2019-03-19T20:13:52.702Z,3.98
2019-03-19T20:17:01.120Z,4.05
2019-03-19T20:19:32.102Z,4.09
2019-03-19T20:22:36.331Z,4.03
2019-03-19T20:25:48.932Z,3.87
2019-03-19T20:32:32.066Z,3.68
2019-03-19T20:35:40.797Z,3.67
2019-03-19T20:38:45.517Z,3.60
2019-03-19T20:45:29.622Z,3.53
2019-03-19T20:56:05.295Z,3.42
2019-03-19T21:02:04.757Z,3.34
2019-03-19T21:05:41.908Z,3.33
2019-03-19T21:09:29.921Z,3.42
2019-03-19T21:15:28.216Z,3.01
2019-03-19T21:18:01.862Z,3.09
2019-03-19T21:46:09.939Z,2.97
2019-03-19T21:55:29.898Z,3.09
2019-03-19T22:06:46.516Z,3.13
2019-03-19T22:35:35.267Z,4.17
2019-03-19T23:02:30.273Z,3.97
2019-03-19T23:12:25.443Z,3.86
2019-03-19T23:15:20.782Z,3.92
2019-03-19T23:22:11.751Z,3.81
2019-03-19T23:51:27.917Z,4.67
